.
WxDataArchive / Data Records for 2008-07-11
2008-07-10 July 2008 2008-07-12

Data Records for Friday, 11 July 2008

Time	Temp	Chill	HIndex	Humid	Dewpt	 Wind 	HiWind	WindDir	Rain 	Barom 
-----	----	-----	------	-----	-----	------	------	-------	-----	----- 
00:00	73.7	73.7	73.7	63	60.3	1	6	248	0.00	29.911 
00:05	73.3	73.3	73.3	64	60.4	0	2	248	0.00	29.907 
00:10	73.0	73.0	73.0	65	60.5	0	7	248	0.00	29.905 
00:15	72.8	72.8	72.8	66	60.8	0	2	292	0.00	29.903 
00:20	72.7	72.7	72.7	67	61.1	1	3	270	0.00	29.898 
00:25	72.5	72.5	72.5	68	61.3	1	3	270	0.00	29.894 
00:30	72.3	72.3	72.3	68	61.1	0	2	270	0.00	29.894 
00:35	72.3	72.3	72.3	68	61.1	0	3	292	0.00	29.895 
00:40	72.3	72.3	72.3	69	61.5	0	4	248	0.00	29.894 
00:45	72.3	72.3	72.3	69	61.5	0	3	248	0.00	29.889 
00:50	72.3	72.3	72.3	69	61.5	0	2	248	0.00	29.882 
00:55	72.3	72.3	72.3	69	61.5	0	2	248	0.00	29.881 
01:00	72.3	72.3	72.3	69	61.5	1	3	270	0.00	29.878 
01:05	72.3	72.3	72.3	69	61.5	0	2	270	0.00	29.880 
01:10	72.1	72.1	72.1	69	61.4	0	2	270	0.00	29.883 
01:15	72.1	72.1	72.1	70	61.8	0	1	270	0.00	29.889 
01:20	72.0	72.0	72.0	70	61.7	0	1	270	0.00	29.885 
01:25	72.0	72.0	72.0	70	61.7	0	2	270	0.00	29.887 
01:30	71.8	71.8	71.8	71	61.9	0	1	270	0.00	29.899 
01:35	71.6	71.6	71.6	71	61.7	0	1	270	0.00	29.906 
01:40	71.5	71.5	71.5	72	62.0	0	1	270	0.00	29.901 
01:45	71.1	71.1	71.1	72	61.6	0	0	---	0.00	29.901 
01:50	70.9	70.9	70.9	73	61.8	0	0	---	0.00	29.899 
01:55	70.6	70.6	70.6	73	61.5	0	1	270	0.00	29.901 
02:00	70.4	70.4	70.4	73	61.3	0	1	270	0.00	29.901 
02:05	70.3	70.3	70.3	74	61.6	0	1	270	0.00	29.905 
02:10	70.3	70.3	70.3	74	61.6	0	0	---	0.00	29.907 
02:15	69.9	69.9	69.9	74	61.2	0	0	---	0.00	29.906 
02:20	69.8	69.8	69.8	74	61.1	0	0	---	0.00	29.909 
02:25	69.6	69.6	69.6	75	61.3	0	0	---	0.00	29.911 
02:30	69.3	69.3	69.3	76	61.4	0	0	---	0.00	29.913 
02:35	68.9	68.9	68.9	77	61.4	0	1	270	0.00	29.913 
02:40	68.8	68.8	68.8	77	61.3	0	1	270	0.00	29.914 
02:45	68.6	68.6	68.6	77	61.1	0	1	270	0.00	29.916 
02:50	68.6	68.6	68.6	77	61.1	0	1	270	0.00	29.920 
02:55	68.6	68.6	68.6	77	61.1	0	1	270	0.00	29.916 
03:00	68.8	68.8	68.8	75	60.5	1	3	292	0.00	29.917 
03:05	68.8	68.8	68.8	74	60.2	0	3	270	0.00	29.918 
03:10	68.9	68.9	68.9	73	59.9	0	2	270	0.00	29.921 
03:15	68.8	68.8	68.8	73	59.8	0	1	270	0.00	29.926 
03:20	68.6	68.6	68.6	73	59.6	0	0	---	0.00	29.921 
03:25	68.4	68.4	68.4	74	59.8	0	1	270	0.00	29.918 
03:30	68.1	68.1	68.1	74	59.5	0	0	---	0.00	29.919 
03:35	67.8	67.8	67.8	75	59.6	0	0	---	0.00	29.920 
03:40	67.6	67.6	67.6	75	59.4	0	0	---	0.00	29.919 
03:45	67.3	67.3	67.3	76	59.5	0	0	---	0.00	29.920 
03:50	66.9	66.9	66.9	77	59.4	0	0	---	0.00	29.928 
03:55	66.6	66.6	66.6	78	59.5	0	0	---	0.00	29.930 
04:00	66.3	66.3	66.3	79	59.6	0	0	---	0.00	29.932 
04:05	66.0	66.0	66.0	80	59.6	0	0	---	0.00	29.931 
04:10	65.6	65.6	65.6	81	59.6	0	0	---	0.00	29.932 
04:15	65.5	65.5	65.5	81	59.5	0	0	---	0.00	29.933 
04:20	65.2	65.2	65.2	82	59.6	0	0	---	0.00	29.938 
04:25	64.8	64.8	64.8	83	59.5	0	0	---	0.00	29.943 
04:30	64.5	64.5	64.5	84	59.6	0	0	---	0.00	29.946 
04:35	64.3	64.3	64.3	84	59.4	0	0	---	0.00	29.948 
04:40	64.0	64.0	64.0	85	59.4	0	0	---	0.00	29.950 
04:45	63.7	63.7	63.7	86	59.4	0	0	---	0.00	29.959 
04:50	63.5	63.5	63.5	87	59.6	0	0	---	0.00	29.964 
04:55	63.4	63.4	63.4	87	59.5	0	0	---	0.00	29.967 
05:00	63.4	63.4	63.4	88	59.8	0	0	---	0.00	29.972 
05:05	63.4	63.4	63.4	88	59.8	0	0	---	0.00	29.977 
05:10	63.4	63.4	63.4	89	60.1	0	0	---	0.00	29.974 
05:15	63.5	63.5	63.5	89	60.2	0	0	---	0.00	29.977 
05:20	63.5	63.5	63.5	89	60.2	0	0	---	0.00	29.978 
05:25	63.7	63.7	63.7	89	60.4	0	0	---	0.00	29.980 
05:30	63.7	63.7	63.7	89	60.4	0	0	---	0.00	29.981 
05:35	63.7	63.7	63.7	89	60.4	0	0	---	0.00	29.981 
05:40	63.7	63.7	63.7	89	60.4	0	0	---	0.00	29.981 
05:45	63.9	63.9	63.9	89	60.6	0	0	---	0.00	29.980 
05:50	63.9	63.9	63.9	89	60.6	0	0	---	0.00	29.981 
05:55	63.9	63.9	63.9	89	60.6	0	0	---	0.00	29.981 
06:00	64.2	64.2	64.2	88	60.6	0	1	270	0.00	29.984 
06:05	64.5	64.5	64.5	87	60.5	0	0	---	0.00	29.984 
06:10	65.2	65.2	65.2	84	60.2	0	1	270	0.00	29.986 
06:15	65.8	65.8	65.8	82	60.1	0	1	270	0.00	29.992 
06:20	66.4	66.4	66.4	80	60.0	0	1	270	0.00	29.995 
06:25	66.6	66.6	66.6	79	59.9	0	1	270	0.00	29.996 
06:30	67.1	67.1	67.1	78	60.0	0	1	135	0.00	29.993 
06:35	67.4	67.4	67.4	77	59.9	0	1	135	0.00	29.995 
06:40	67.8	67.8	67.8	77	60.3	0	1	135	0.00	29.993 
06:45	67.9	67.9	67.9	76	60.0	0	1	135	0.00	29.991 
06:50	68.3	68.3	68.3	75	60.1	0	1	45	0.00	29.991 
06:55	68.8	68.8	68.8	75	60.5	0	1	45	0.00	29.988 
07:00	69.3	69.3	69.3	73	60.3	1	2	22	0.00	29.988 
07:05	69.8	69.8	69.8	72	60.4	0	2	22	0.00	29.983 
07:10	70.3	70.3	70.3	71	60.4	1	2	338	0.00	29.980 
07:15	70.6	70.6	70.6	72	61.1	0	2	338	0.00	29.979 
07:20	70.8	70.8	70.8	69	60.1	1	2	338	0.00	29.983 
07:25	70.8	70.8	70.8	69	60.1	1	2	338	0.00	29.980 
07:30	70.8	70.8	70.8	68	59.7	0	2	338	0.00	29.980 
07:35	70.9	70.9	70.9	68	59.8	1	3	270	0.00	29.979 
07:40	71.5	71.5	71.5	68	60.4	0	2	292	0.00	29.979 
07:45	72.0	72.0	72.0	68	60.8	0	2	292	0.00	29.977 
07:50	72.7	72.7	72.7	66	60.7	0	1	292	0.00	29.976 
07:55	73.0	73.0	73.0	65	60.5	1	3	292	0.00	29.978 
08:00	73.3	73.3	73.3	65	60.8	1	2	270	0.00	29.978 
08:05	73.9	73.9	73.9	65	61.4	0	1	270	0.00	29.977 
08:10	74.2	74.2	74.2	64	61.2	1	2	270	0.00	29.977 
08:15	74.4	74.4	74.4	62	60.5	1	3	270	0.00	29.977 
08:20	74.6	74.6	74.6	63	61.2	1	2	270	0.00	29.975 
08:25	74.9	74.9	74.9	63	61.4	1	2	270	0.00	29.975 
08:30	74.9	74.9	74.9	62	61.0	1	4	270	0.00	29.975 
08:35	74.9	74.9	74.9	62	61.0	1	3	248	0.00	29.975 
08:40	75.1	75.1	77.3	62	61.2	0	1	248	0.00	29.973 
08:45	75.6	75.6	77.7	62	61.6	0	1	248	0.00	29.973 
08:50	76.0	76.0	78.0	60	61.1	1	3	248	0.00	29.973 
08:55	76.1	76.1	78.1	60	61.2	1	2	248	0.00	29.974 
09:00	76.5	76.5	78.4	59	61.1	1	3	248	0.00	29.972 
09:05	76.8	76.8	78.6	60	61.8	1	3	270	0.00	29.975 
09:10	77.0	77.0	78.8	60	62.0	1	3	270	0.00	29.977 
09:15	77.4	77.4	79.1	58	61.4	1	3	270	0.00	29.976 
09:20	77.4	77.4	79.1	58	61.4	1	3	248	0.00	29.975 
09:25	77.9	77.9	79.5	59	62.4	1	2	248	0.00	29.976 
09:30	78.8	78.8	80.5	60	63.7	0	2	248	0.00	29.972 
09:35	79.4	79.4	80.9	57	62.8	1	4	270	0.00	29.974 
09:40	79.4	79.4	80.7	55	61.8	1	3	270	0.00	29.975 
09:45	79.6	79.6	80.9	55	62.0	1	3	248	0.00	29.975 
09:50	79.6	79.6	81.2	58	63.5	1	3	248	0.00	29.975 
09:55	79.4	79.4	81.1	60	64.3	1	3	270	0.00	29.976 
10:00	79.6	79.6	81.1	57	63.0	2	4	270	0.00	29.979 
10:05	79.9	79.9	81.7	60	64.7	1	4	270	0.00	29.983 
10:10	80.5	80.5	81.9	56	63.3	1	5	270	0.00	29.984 
10:15	80.3	80.3	81.8	57	63.7	2	4	270	0.00	29.984 
10:20	80.5	80.5	82.2	58	64.3	1	4	270	0.00	29.985 
10:25	81.1	81.1	82.9	58	64.9	1	4	248	0.00	29.987 
10:30	81.4	81.4	83.3	58	65.2	1	3	270	0.00	29.988 
10:35	81.4	81.4	83.3	58	65.2	2	5	248	0.00	29.989 
10:40	81.6	81.6	83.7	59	65.9	2	4	248	0.00	29.988 
10:45	82.0	82.0	84.1	58	65.7	1	3	248	0.00	29.988 
10:50	82.0	82.0	83.7	56	64.7	2	5	248	0.00	29.989 
10:55	82.0	82.0	84.1	58	65.7	1	4	248	0.00	29.987 
11:00	82.2	82.2	84.2	57	65.4	2	4	248	0.00	29.987 
11:05	82.2	82.2	84.0	56	64.9	2	4	270	0.00	29.987 
11:10	82.6	82.6	84.9	58	66.3	2	4	270	0.00	29.990 
11:15	83.0	83.0	85.5	58	66.7	1	3	248	0.00	29.990 
11:20	82.8	82.8	84.8	56	65.5	2	4	270	0.00	29.991 
11:25	82.6	82.6	84.7	57	65.8	2	4	270	0.00	29.993 
11:30	82.8	82.8	85.4	59	67.0	2	5	270	0.00	29.994 
11:35	82.4	82.4	85.2	61	67.6	2	4	270	0.00	29.993 
11:40	82.8	82.8	85.6	60	67.5	2	5	270	0.00	29.991 
11:45	82.8	82.8	85.4	59	67.0	2	5	270	0.00	29.992 
11:50	82.6	82.6	85.1	59	66.8	2	4	248	0.00	29.990 
11:55	83.0	83.0	86.4	62	68.6	1	4	270	0.00	29.990 
12:00	83.2	83.2	86.2	60	67.8	2	6	270	0.00	29.990 
12:05	83.2	83.2	86.2	60	67.8	1	2	270	0.00	29.989 
12:10	83.2	83.2	85.8	58	66.9	2	6	270	0.00	29.989 
12:15	83.2	83.2	86.0	59	67.4	1	3	270	0.00	29.989 
12:20	83.0	83.0	85.5	58	66.7	1	4	338	0.00	29.989 
12:25	83.2	83.2	86.0	59	67.4	1	3	270	0.00	29.988 
12:30	83.6	83.6	86.4	58	67.2	1	3	292	0.00	29.979 
12:35	84.1	84.1	86.9	57	67.2	2	5	248	0.00	29.979 
12:40	84.1	84.1	87.2	58	67.7	1	3	292	0.00	29.977 
12:45	84.0	84.0	87.3	59	68.1	1	3	248	0.00	29.974 
12:50	84.3	84.3	87.5	58	67.9	1	3	248	0.00	29.973 
12:55	84.9	84.9	87.6	55	66.9	1	2	248	0.00	29.973 
13:00	84.9	84.9	88.5	58	68.4	1	3	248	0.00	29.972 
13:05	84.7	84.7	87.3	55	66.7	1	3	292	0.00	29.973 
13:10	84.7	84.7	87.9	57	67.7	1	3	292	0.00	29.973 
13:15	85.5	85.5	89.5	58	69.0	1	4	292	0.00	29.973 
13:20	85.3	85.3	88.0	54	66.7	1	4	112	0.00	29.971 
13:25	84.9	84.9	87.6	55	66.9	0	2	112	0.00	29.973 
13:30	85.3	85.3	88.8	57	68.3	2	6	248	0.00	29.970 
13:35	85.7	85.7	88.9	55	67.6	1	2	270	0.00	29.968 
13:40	86.1	86.1	88.9	53	66.9	1	4	112	0.00	29.962 
13:45	86.3	86.3	88.9	52	66.6	1	4	270	0.00	29.960 
13:50	85.9	85.9	89.2	55	67.8	0	2	270	0.00	29.959 
13:55	86.1	86.1	89.6	55	68.0	1	3	292	0.00	29.958 
14:00	85.9	85.9	88.6	53	66.7	1	4	270	0.00	29.963 
14:05	85.3	85.3	87.7	53	66.2	1	2	270	0.00	29.962 
14:10	84.7	84.7	87.0	54	66.2	0	2	270	0.00	29.962 
14:15	84.5	84.5	87.3	56	67.0	0	2	270	0.00	29.958 
14:20	84.1	84.1	86.7	56	66.7	1	2	270	0.00	29.962 
14:25	84.0	84.0	86.7	57	67.1	0	1	270	0.00	29.961 
14:30	84.0	84.0	86.7	57	67.1	0	1	270	0.00	29.959 
14:35	84.0	84.0	87.0	58	67.6	1	3	90	0.00	29.960 
14:40	83.8	83.8	86.0	55	65.9	1	3	90	0.00	29.959 
14:45	84.5	84.5	87.8	58	68.1	0	3	270	0.00	29.958 
14:50	85.1	85.1	88.2	56	67.6	0	1	270	0.00	29.956 
14:55	85.1	85.1	88.2	56	67.6	1	2	270	0.00	29.956 
15:00	84.9	84.9	88.2	57	67.9	1	4	270	0.00	29.956 
15:05	84.5	84.5	87.3	56	67.0	1	3	315	0.00	29.959 
15:10	84.5	84.5	87.3	56	67.0	1	5	248	0.00	29.959 
15:15	84.9	84.9	87.6	55	66.9	1	4	248	0.00	29.961 
15:20	84.5	84.5	87.3	56	67.0	1	4	248	0.00	29.958 
15:25	84.7	84.7	88.4	59	68.8	1	3	270	0.00	29.955 
15:30	85.3	85.3	88.2	55	67.3	1	4	248	0.00	29.954 
15:35	85.9	85.9	89.2	55	67.8	1	3	248	0.00	29.956 
15:40	85.7	85.7	88.6	54	67.1	1	2	315	0.00	29.957 
15:45	85.1	85.1	87.7	54	66.6	2	5	270	0.00	29.959 
15:50	85.3	85.3	88.8	57	68.3	1	3	248	0.00	29.958 
15:55	85.7	85.7	88.6	54	67.1	1	3	270	0.00	29.955 
16:00	86.1	86.1	88.9	53	66.9	1	7	248	0.00	29.956 
16:05	85.9	85.9	88.6	53	66.7	2	5	225	0.00	29.953 
16:10	86.1	86.1	88.6	52	66.4	1	2	248	0.00	29.950 
16:15	86.3	86.3	88.9	52	66.6	2	6	248	0.00	29.946 
16:20	85.7	85.7	88.3	53	66.6	2	4	270	0.00	29.947 
16:25	85.9	85.9	89.2	55	67.8	1	5	248	0.00	29.942 
16:30	85.9	85.9	89.6	56	68.3	1	2	225	0.00	29.939 
16:35	86.1	86.1	89.2	54	67.5	1	3	90	0.00	29.934 
16:40	86.3	86.3	88.9	52	66.6	2	5	90	0.00	29.934 
16:45	85.7	85.7	88.6	54	67.1	1	7	90	0.00	29.939 
16:50	85.7	85.7	88.6	54	67.1	1	3	248	0.00	29.937 
16:55	85.9	85.9	89.2	55	67.8	1	6	270	0.00	29.934 
17:00	85.9	85.9	88.9	54	67.3	1	3	270	0.00	29.933 
17:05	85.5	85.5	88.6	55	67.5	1	5	292	0.00	29.930 
17:10	85.5	85.5	88.9	56	68.0	1	4	270	0.00	29.930 
17:15	85.1	85.1	87.9	55	67.1	1	5	248	0.00	29.929 
17:20	84.9	84.9	87.9	56	67.4	1	3	90	0.00	29.926 
17:25	85.1	85.1	88.5	57	68.1	1	3	112	0.00	29.925 
17:30	84.9	84.9	87.9	56	67.4	1	2	292	0.00	29.926 
17:35	84.7	84.7	87.6	56	67.2	1	3	225	0.00	29.930 
17:40	84.7	84.7	88.1	58	68.3	0	4	135	0.00	29.931 
17:45	84.5	84.5	87.8	58	68.1	1	4	90	0.00	29.933 
17:50	84.5	84.5	87.8	58	68.1	1	3	248	0.00	29.934 
17:55	84.7	84.7	88.1	58	68.3	1	4	270	0.00	29.934 
18:00	84.9	84.9	88.8	59	68.9	1	3	270	0.00	29.943 
18:05	84.9	84.9	88.8	59	68.9	1	2	90	0.00	29.933 
18:10	84.7	84.7	88.1	58	68.3	1	2	45	0.00	29.939 
18:15	84.5	84.5	88.1	59	68.6	1	3	45	0.00	29.935 
18:20	84.3	84.3	88.0	60	68.9	0	2	0	0.00	29.932 
18:25	84.3	84.3	87.8	59	68.4	0	2	315	0.00	29.930 
18:30	84.3	84.3	88.0	60	68.9	0	1	315	0.00	29.928 
18:35	84.1	84.1	86.9	57	67.2	1	3	270	0.00	29.931 
18:40	84.1	84.1	87.2	58	67.7	0	3	315	0.00	29.929 
18:45	84.0	84.0	86.7	57	67.1	1	3	292	0.00	29.933 
18:50	83.8	83.8	86.7	58	67.4	0	3	248	0.00	29.929 
18:55	83.6	83.6	86.4	58	67.2	0	1	248	0.00	29.929 
19:00	83.4	83.4	86.3	59	67.5	0	1	248	0.00	29.929 
19:05	83.2	83.2	86.2	60	67.8	0	1	248	0.00	29.924 
19:10	82.8	82.8	85.8	61	67.9	0	1	248	0.00	29.924 
19:15	82.6	82.6	85.7	62	68.2	0	2	248	0.00	29.922 
19:20	82.4	82.4	85.4	62	68.0	0	0	---	0.00	29.924 
19:25	82.2	82.2	85.3	63	68.3	0	1	248	0.00	29.922 
19:30	82.0	82.0	85.0	63	68.1	0	1	248	0.00	29.915 
19:35	82.0	82.0	85.0	63	68.1	0	1	248	0.00	29.914 
19:40	81.8	81.8	84.9	64	68.4	0	1	248	0.00	29.911 
19:45	81.8	81.8	85.1	65	68.9	0	1	248	0.00	29.911 
19:50	81.6	81.6	84.7	65	68.7	0	1	248	0.00	29.911 
19:55	81.4	81.4	84.6	66	68.9	0	0	---	0.00	29.910 
20:00	81.2	81.2	84.3	66	68.7	0	0	---	0.00	29.910 
20:05	81.1	81.1	84.3	67	69.1	0	0	---	0.00	29.908 
20:10	80.7	80.7	83.8	68	69.1	0	1	248	0.00	29.908 
20:15	80.7	80.7	83.8	68	69.1	0	1	248	0.00	29.907 
20:20	80.5	80.5	83.5	68	68.9	0	1	248	0.00	29.908 
20:25	80.5	80.5	83.5	68	68.9	0	1	248	0.00	29.906 
20:30	80.3	80.3	83.0	67	68.3	0	2	248	0.00	29.907 
20:35	80.1	80.1	82.9	68	68.6	0	2	248	0.00	29.908 
20:40	79.8	79.8	82.5	69	68.7	0	2	248	0.00	29.913 
20:45	79.6	79.6	82.2	69	68.5	0	1	248	0.00	29.918 
20:50	79.4	79.4	81.9	69	68.3	0	2	248	0.00	29.921 
20:55	79.6	79.6	82.1	68	68.1	0	2	248	0.00	29.924 
21:00	79.6	79.6	82.1	68	68.1	0	2	248	0.00	29.925 
21:05	79.6	79.6	82.1	68	68.1	0	2	248	0.00	29.921 
21:10	79.4	79.4	81.8	68	67.9	0	3	248	0.00	29.921 
21:15	79.4	79.4	81.8	68	67.9	0	4	248	0.00	29.923 
21:20	79.2	79.2	81.5	68	67.7	0	2	248	0.00	29.923 
21:25	79.2	79.2	81.6	69	68.1	0	2	248	0.00	29.923 
21:30	79.0	79.0	81.3	69	67.9	0	4	248	0.00	29.924 
21:35	78.6	78.6	80.8	69	67.6	0	2	270	0.00	29.923 
21:40	78.5	78.5	80.7	70	67.9	0	2	270	0.00	29.926 
21:45	78.3	78.3	80.4	70	67.7	0	2	270	0.00	29.925 
21:50	78.3	78.3	80.4	70	67.7	1	5	90	0.00	29.922 
21:55	78.1	78.1	80.2	71	67.9	0	2	292	0.00	29.922 
22:00	77.9	77.9	79.9	71	67.7	0	0	---	0.00	29.922 
22:05	77.7	77.7	79.7	72	67.9	0	1	292	0.00	29.922 
22:10	77.6	77.6	79.5	72	67.8	0	1	292	0.00	29.925 
22:15	77.6	77.6	79.5	72	67.8	0	1	292	0.00	29.926 
22:20	77.6	77.6	79.5	72	67.8	0	2	292	0.00	29.929 
22:25	77.4	77.4	79.3	72	67.6	0	1	292	0.00	29.929 
22:30	77.4	77.4	79.3	72	67.6	0	1	292	0.00	29.931 
22:35	77.2	77.2	79.0	73	67.9	0	1	292	0.00	29.934 
22:40	77.0	77.0	78.7	73	67.7	0	1	292	0.00	29.936 
22:45	76.8	76.8	78.5	73	67.5	0	2	292	0.00	29.937 
22:50	76.8	76.8	78.5	73	67.5	0	1	292	0.00	29.937 
22:55	76.7	76.7	78.3	74	67.8	0	1	292	0.00	29.938 
23:00	76.5	76.5	78.1	74	67.6	0	1	292	0.00	29.937 
23:05	76.5	76.5	78.0	75	68.0	0	0	---	0.00	29.938 
23:10	76.5	76.5	78.0	75	68.0	0	1	292	0.00	29.938 
23:15	76.3	76.3	77.7	75	67.8	0	1	292	0.00	29.941 
23:20	76.1	76.1	77.4	76	68.0	0	1	292	0.00	29.940 
23:25	76.0	76.0	77.3	76	67.9	0	1	292	0.00	29.939 
23:30	76.0	76.0	77.2	77	68.3	0	1	292	0.00	29.942 
23:35	75.8	75.8	77.0	77	68.1	0	2	292	0.00	29.943 
23:40	75.8	75.8	77.0	77	68.1	0	1	292	0.00	29.949 
23:45	75.8	75.8	77.0	77	68.1	0	2	292	0.00	29.951 
23:50	75.8	75.8	76.9	78	68.4	0	1	292	0.00	29.952 
23:55	76.0	76.0	77.2	78	68.6	0	2	292	0.00	29.952 

CoCoRaHS
IN-AL-39
A2 Web Hosting
Creative Commons License
GoDaddy
Look for:

loaded 2017-12-13 15:42:05 • last modified 2010-11-18 10:43:29
Privacy PolicyDisclaimer
• wx.awcolley.com is powered by PmWiki v.2002016 •
• all content (unless otherwise noted) © 2017 A W Colley